sensor_id;sensor_type;location;lat;lon;timestamp;P1;durP1;ratioP1;P2;durP2;ratioP2
19595;SDS011;9945;46.010;8.946;2023-05-13T00:01:11;1.98;;;1.88;;
19595;SDS011;9945;46.010;8.946;2023-05-13T00:03:38;1.80;;;1.70;;
19595;SDS011;9945;46.010;8.946;2023-05-13T00:06:05;2.28;;;2.17;;
19595;SDS011;9945;46.010;8.946;2023-05-13T00:08:32;3.58;;;2.05;;
19595;SDS011;9945;46.010;8.946;2023-05-13T00:11:00;1.60;;;1.50;;
19595;SDS011;9945;46.010;8.946;2023-05-13T00:13:27;2.45;;;1.98;;
19595;SDS011;9945;46.010;8.946;2023-05-13T00:15:53;2.05;;;1.95;;
19595;SDS011;9945;46.010;8.946;2023-05-13T00:18:20;2.70;;;2.22;;
19595;SDS011;9945;46.010;8.946;2023-05-13T00:20:47;4.80;;;2.38;;
19595;SDS011;9945;46.010;8.946;2023-05-13T00:23:14;2.80;;;2.60;;
19595;SDS011;9945;46.010;8.946;2023-05-13T00:25:41;3.05;;;2.13;;
19595;SDS011;9945;46.010;8.946;2023-05-13T00:28:10;2.03;;;1.92;;
19595;SDS011;9945;46.010;8.946;2023-05-13T00:30:39;2.38;;;1.80;;
19595;SDS011;9945;46.010;8.946;2023-05-13T00:33:06;1.90;;;1.67;;
19595;SDS011;9945;46.010;8.946;2023-05-13T00:35:33;2.20;;;2.10;;
19595;SDS011;9945;46.010;8.946;2023-05-13T00:37:59;2.42;;;2.22;;
19595;SDS011;9945;46.010;8.946;2023-05-13T00:40:26;2.30;;;2.20;;
19595;SDS011;9945;46.010;8.946;2023-05-13T00:42:53;3.00;;;2.30;;
19595;SDS011;9945;46.010;8.946;2023-05-13T00:45:22;1.70;;;1.60;;
19595;SDS011;9945;46.010;8.946;2023-05-13T00:47:49;1.75;;;1.65;;
19595;SDS011;9945;46.010;8.946;2023-05-13T00:50:16;3.80;;;1.40;;
19595;SDS011;9945;46.010;8.946;2023-05-13T00:52:44;3.92;;;1.35;;
19595;SDS011;9945;46.010;8.946;2023-05-13T00:55:13;3.00;;;1.27;;
19595;SDS011;9945;46.010;8.946;2023-05-13T00:57:39;1.15;;;1.15;;
19595;SDS011;9945;46.010;8.946;2023-05-13T01:00:07;2.30;;;0.95;;
19595;SDS011;9945;46.010;8.946;2023-05-13T01:02:38;1.67;;;1.58;;
19595;SDS011;9945;46.010;8.946;2023-05-13T01:05:13;1.75;;;1.60;;
19595;SDS011;9945;46.010;8.946;2023-05-13T01:07:50;2.83;;;1.60;;
19595;SDS011;9945;46.010;8.946;2023-05-13T01:10:25;2.15;;;1.45;;
19595;SDS011;9945;46.010;8.946;2023-05-13T01:13:00;2.40;;;1.80;;
19595;SDS011;9945;46.010;8.946;2023-05-13T01:15:32;1.60;;;1.50;;
19595;SDS011;9945;46.010;8.946;2023-05-13T01:18:06;1.20;;;1.20;;
19595;SDS011;9945;46.010;8.946;2023-05-13T01:20:37;1.65;;;1.55;;
19595;SDS011;9945;46.010;8.946;2023-05-13T01:23:08;3.03;;;1.30;;
19595;SDS011;9945;46.010;8.946;2023-05-13T01:25:35;1.65;;;1.55;;
19595;SDS011;9945;46.010;8.946;2023-05-13T01:28:01;3.28;;;1.70;;
19595;SDS011;9945;46.010;8.946;2023-05-13T01:30:29;1.30;;;1.30;;
19595;SDS011;9945;46.010;8.946;2023-05-13T01:32:56;2.05;;;1.95;;
19595;SDS011;9945;46.010;8.946;2023-05-13T01:35:24;2.40;;;1.23;;
19595;SDS011;9945;46.010;8.946;2023-05-13T01:37:52;1.65;;;1.55;;
19595;SDS011;9945;46.010;8.946;2023-05-13T01:40:22;1.60;;;1.50;;
19595;SDS011;9945;46.010;8.946;2023-05-13T01:42:49;1.63;;;1.60;;
19595;SDS011;9945;46.010;8.946;2023-05-13T01:45:16;2.40;;;1.50;;
19595;SDS011;9945;46.010;8.946;2023-05-13T01:47:43;3.17;;;1.40;;
19595;SDS011;9945;46.010;8.946;2023-05-13T01:50:10;3.03;;;1.48;;
19595;SDS011;9945;46.010;8.946;2023-05-13T01:52:37;2.67;;;1.38;;
19595;SDS011;9945;46.010;8.946;2023-05-13T01:55:04;1.35;;;1.25;;
19595;SDS011;9945;46.010;8.946;2023-05-13T01:57:33;1.75;;;1.60;;
19595;SDS011;9945;46.010;8.946;2023-05-13T01:59:59;10.13;;;1.73;;
19595;SDS011;9945;46.010;8.946;2023-05-13T02:02:26;1.08;;;1.08;;
19595;SDS011;9945;46.010;8.946;2023-05-13T02:04:53;3.38;;;1.40;;
19595;SDS011;9945;46.010;8.946;2023-05-13T02:07:20;1.83;;;1.35;;
19595;SDS011;9945;46.010;8.946;2023-05-13T02:09:47;4.15;;;1.40;;
19595;SDS011;9945;46.010;8.946;2023-05-13T02:12:13;3.42;;;1.10;;
19595;SDS011;9945;46.010;8.946;2023-05-13T02:14:42;1.38;;;1.30;;
19595;SDS011;9945;46.010;8.946;2023-05-13T02:17:08;1.50;;;1.40;;
19595;SDS011;9945;46.010;8.946;2023-05-13T02:19:35;1.77;;;1.10;;
19595;SDS011;9945;46.010;8.946;2023-05-13T02:22:02;1.15;;;1.15;;
19595;SDS011;9945;46.010;8.946;2023-05-13T02:24:29;0.98;;;0.90;;
19595;SDS011;9945;46.010;8.946;2023-05-13T02:26:56;2.35;;;1.52;;
19595;SDS011;9945;46.010;8.946;2023-05-13T02:29:23;1.30;;;0.90;;
19595;SDS011;9945;46.010;8.946;2023-05-13T02:31:51;1.20;;;1.20;;
19595;SDS011;9945;46.010;8.946;2023-05-13T02:34:19;1.20;;;1.15;;
19595;SDS011;9945;46.010;8.946;2023-05-13T02:36:46;1.45;;;1.35;;
19595;SDS011;9945;46.010;8.946;2023-05-13T02:39:13;1.30;;;1.20;;
19595;SDS011;9945;46.010;8.946;2023-05-13T02:41:40;2.35;;;1.38;;
19595;SDS011;9945;46.010;8.946;2023-05-13T02:44:08;3.47;;;1.10;;
19595;SDS011;9945;46.010;8.946;2023-05-13T02:46:35;1.85;;;1.45;;
19595;SDS011;9945;46.010;8.946;2023-05-13T02:49:03;2.25;;;1.13;;
19595;SDS011;9945;46.010;8.946;2023-05-13T02:51:30;1.30;;;1.20;;
19595;SDS011;9945;46.010;8.946;2023-05-13T02:53:57;2.15;;;1.05;;
19595;SDS011;9945;46.010;8.946;2023-05-13T02:56:24;1.50;;;1.15;;
19595;SDS011;9945;46.010;8.946;2023-05-13T02:58:51;1.30;;;1.20;;
19595;SDS011;9945;46.010;8.946;2023-05-13T03:01:17;1.30;;;1.20;;
19595;SDS011;9945;46.010;8.946;2023-05-13T03:03:44;1.08;;;0.98;;
19595;SDS011;9945;46.010;8.946;2023-05-13T03:06:12;2.25;;;0.93;;
19595;SDS011;9945;46.010;8.946;2023-05-13T03:08:39;2.00;;;1.20;;
19595;SDS011;9945;46.010;8.946;2023-05-13T03:11:06;1.00;;;1.00;;
19595;SDS011;9945;46.010;8.946;2023-05-13T03:13:33;1.08;;;1.02;;
19595;SDS011;9945;46.010;8.946;2023-05-13T03:16:00;1.27;;;1.17;;
19595;SDS011;9945;46.010;8.946;2023-05-13T03:18:26;2.00;;;1.42;;
19595;SDS011;9945;46.010;8.946;2023-05-13T03:20:55;1.52;;;1.42;;
19595;SDS011;9945;46.010;8.946;2023-05-13T03:23:23;1.80;;;1.50;;
19595;SDS011;9945;46.010;8.946;2023-05-13T03:25:50;1.60;;;1.50;;
19595;SDS011;9945;46.010;8.946;2023-05-13T03:28:17;2.78;;;2.03;;
19595;SDS011;9945;46.010;8.946;2023-05-13T03:30:44;1.80;;;1.70;;
19595;SDS011;9945;46.010;8.946;2023-05-13T03:33:11;2.05;;;1.60;;
19595;SDS011;9945;46.010;8.946;2023-05-13T03:35:38;1.65;;;1.60;;
19595;SDS011;9945;46.010;8.946;2023-05-13T03:38:05;1.80;;;1.70;;
19595;SDS011;9945;46.010;8.946;2023-05-13T03:40:33;3.65;;;1.95;;
19595;SDS011;9945;46.010;8.946;2023-05-13T03:43:00;1.75;;;1.40;;
19595;SDS011;9945;46.010;8.946;2023-05-13T03:45:26;2.70;;;1.40;;
19595;SDS011;9945;46.010;8.946;2023-05-13T03:47:53;2.47;;;1.38;;
19595;SDS011;9945;46.010;8.946;2023-05-13T03:50:20;1.33;;;1.23;;
19595;SDS011;9945;46.010;8.946;2023-05-13T03:52:47;4.03;;;0.98;;
19595;SDS011;9945;46.010;8.946;2023-05-13T03:55:14;1.20;;;1.20;;
19595;SDS011;9945;46.010;8.946;2023-05-13T03:57:46;1.63;;;1.00;;
19595;SDS011;9945;46.010;8.946;2023-05-13T04:00:14;0.85;;;0.85;;
19595;SDS011;9945;46.010;8.946;2023-05-13T04:02:41;4.05;;;0.80;;
19595;SDS011;9945;46.010;8.946;2023-05-13T04:05:08;1.42;;;1.17;;
19595;SDS011;9945;46.010;8.946;2023-05-13T04:07:37;2.78;;;0.98;;
19595;SDS011;9945;46.010;8.946;2023-05-13T04:10:04;0.70;;;0.70;;
19595;SDS011;9945;46.010;8.946;2023-05-13T04:12:32;0.98;;;0.90;;
19595;SDS011;9945;46.010;8.946;2023-05-13T04:15:00;1.67;;;0.90;;
19595;SDS011;9945;46.010;8.946;2023-05-13T04:17:27;1.20;;;1.10;;
19595;SDS011;9945;46.010;8.946;2023-05-13T04:19:54;0.98;;;0.98;;
19595;SDS011;9945;46.010;8.946;2023-05-13T04:22:21;1.30;;;1.08;;
19595;SDS011;9945;46.010;8.946;2023-05-13T04:24:49;4.25;;;1.00;;
19595;SDS011;9945;46.010;8.946;2023-05-13T04:27:20;1.38;;;0.93;;
19595;SDS011;9945;46.010;8.946;2023-05-13T04:29:47;1.25;;;1.15;;
19595;SDS011;9945;46.010;8.946;2023-05-13T04:32:16;2.00;;;0.80;;
19595;SDS011;9945;46.010;8.946;2023-05-13T04:34:46;2.08;;;0.90;;
19595;SDS011;9945;46.010;8.946;2023-05-13T04:37:13;1.27;;;0.75;;
19595;SDS011;9945;46.010;8.946;2023-05-13T04:39:40;1.33;;;0.85;;
19595;SDS011;9945;46.010;8.946;2023-05-13T04:42:07;0.65;;;0.65;;
19595;SDS011;9945;46.010;8.946;2023-05-13T04:44:33;1.20;;;0.90;;
19595;SDS011;9945;46.010;8.946;2023-05-13T04:47:00;0.85;;;0.85;;
19595;SDS011;9945;46.010;8.946;2023-05-13T04:49:31;1.45;;;0.90;;
19595;SDS011;9945;46.010;8.946;2023-05-13T04:51:59;1.35;;;0.80;;
19595;SDS011;9945;46.010;8.946;2023-05-13T04:54:26;1.20;;;1.10;;
19595;SDS011;9945;46.010;8.946;2023-05-13T04:56:53;2.25;;;1.27;;
19595;SDS011;9945;46.010;8.946;2023-05-13T04:59:20;2.13;;;1.05;;
19595;SDS011;9945;46.010;8.946;2023-05-13T05:01:47;1.20;;;1.10;;
19595;SDS011;9945;46.010;8.946;2023-05-13T05:04:14;3.58;;;1.05;;
19595;SDS011;9945;46.010;8.946;2023-05-13T05:06:42;1.13;;;1.13;;
19595;SDS011;9945;46.010;8.946;2023-05-13T05:09:09;1.00;;;1.00;;
19595;SDS011;9945;46.010;8.946;2023-05-13T05:11:36;1.77;;;1.10;;
19595;SDS011;9945;46.010;8.946;2023-05-13T05:14:03;2.00;;;1.10;;
19595;SDS011;9945;46.010;8.946;2023-05-13T05:16:30;3.33;;;1.20;;
19595;SDS011;9945;46.010;8.946;2023-05-13T05:18:57;1.00;;;1.00;;
19595;SDS011;9945;46.010;8.946;2023-05-13T05:21:24;1.45;;;1.35;;
19595;SDS011;9945;46.010;8.946;2023-05-13T05:23:52;1.15;;;1.05;;
19595;SDS011;9945;46.010;8.946;2023-05-13T05:26:19;1.83;;;1.15;;
19595;SDS011;9945;46.010;8.946;2023-05-13T05:28:46;3.38;;;1.13;;
19595;SDS011;9945;46.010;8.946;2023-05-13T05:31:13;1.42;;;0.90;;
19595;SDS011;9945;46.010;8.946;2023-05-13T05:33:40;1.38;;;1.27;;
19595;SDS011;9945;46.010;8.946;2023-05-13T05:36:07;4.55;;;1.15;;
19595;SDS011;9945;46.010;8.946;2023-05-13T05:38:34;0.82;;;0.82;;
19595;SDS011;9945;46.010;8.946;2023-05-13T05:41:02;0.95;;;0.93;;
19595;SDS011;9945;46.010;8.946;2023-05-13T05:43:29;1.20;;;1.13;;
19595;SDS011;9945;46.010;8.946;2023-05-13T05:45:56;0.98;;;0.98;;
19595;SDS011;9945;46.010;8.946;2023-05-13T05:48:23;1.55;;;1.05;;
19595;SDS011;9945;46.010;8.946;2023-05-13T05:50:50;1.95;;;0.90;;
19595;SDS011;9945;46.010;8.946;2023-05-13T05:53:17;1.23;;;1.02;;
19595;SDS011;9945;46.010;8.946;2023-05-13T05:55:43;1.02;;;0.90;;
19595;SDS011;9945;46.010;8.946;2023-05-13T05:58:14;0.80;;;0.80;;
19595;SDS011;9945;46.010;8.946;2023-05-13T06:00:41;1.73;;;1.25;;
19595;SDS011;9945;46.010;8.946;2023-05-13T06:03:08;0.90;;;0.90;;
19595;SDS011;9945;46.010;8.946;2023-05-13T06:05:35;0.77;;;0.77;;
19595;SDS011;9945;46.010;8.946;2023-05-13T06:08:03;1.25;;;0.90;;
19595;SDS011;9945;46.010;8.946;2023-05-13T06:10:30;1.60;;;0.98;;
19595;SDS011;9945;46.010;8.946;2023-05-13T06:12:57;0.80;;;0.80;;
19595;SDS011;9945;46.010;8.946;2023-05-13T06:15:25;0.98;;;0.90;;
19595;SDS011;9945;46.010;8.946;2023-05-13T06:17:52;1.33;;;1.25;;
19595;SDS011;9945;46.010;8.946;2023-05-13T06:20:19;1.75;;;1.10;;
19595;SDS011;9945;46.010;8.946;2023-05-13T06:22:46;2.38;;;1.00;;
19595;SDS011;9945;46.010;8.946;2023-05-13T06:25:13;1.00;;;1.00;;
19595;SDS011;9945;46.010;8.946;2023-05-13T06:27:40;0.98;;;0.85;;
19595;SDS011;9945;46.010;8.946;2023-05-13T06:30:07;2.60;;;0.77;;
19595;SDS011;9945;46.010;8.946;2023-05-13T06:32:35;0.93;;;0.90;;
19595;SDS011;9945;46.010;8.946;2023-05-13T06:35:02;1.02;;;0.95;;
19595;SDS011;9945;46.010;8.946;2023-05-13T06:37:29;0.70;;;0.70;;
19595;SDS011;9945;46.010;8.946;2023-05-13T06:39:56;2.28;;;0.70;;
19595;SDS011;9945;46.010;8.946;2023-05-13T06:42:24;4.68;;;1.20;;
19595;SDS011;9945;46.010;8.946;2023-05-13T06:44:51;1.35;;;0.98;;
19595;SDS011;9945;46.010;8.946;2023-05-13T06:47:17;2.65;;;1.42;;
19595;SDS011;9945;46.010;8.946;2023-05-13T06:49:46;3.40;;;0.90;;
19595;SDS011;9945;46.010;8.946;2023-05-13T06:52:12;1.35;;;0.82;;
19595;SDS011;9945;46.010;8.946;2023-05-13T06:54:39;1.23;;;1.13;;
19595;SDS011;9945;46.010;8.946;2023-05-13T06:57:06;1.00;;;1.00;;
19595;SDS011;9945;46.010;8.946;2023-05-13T06:59:34;1.38;;;1.10;;
19595;SDS011;9945;46.010;8.946;2023-05-13T07:02:01;1.05;;;1.05;;
19595;SDS011;9945;46.010;8.946;2023-05-13T07:04:28;1.23;;;1.13;;
19595;SDS011;9945;46.010;8.946;2023-05-13T07:06:56;0.90;;;0.90;;
19595;SDS011;9945;46.010;8.946;2023-05-13T07:09:23;0.80;;;0.80;;
19595;SDS011;9945;46.010;8.946;2023-05-13T07:11:51;3.33;;;0.90;;
19595;SDS011;9945;46.010;8.946;2023-05-13T07:14:18;0.82;;;0.82;;
19595;SDS011;9945;46.010;8.946;2023-05-13T07:16:45;2.30;;;1.00;;
19595;SDS011;9945;46.010;8.946;2023-05-13T07:19:12;1.42;;;0.82;;
19595;SDS011;9945;46.010;8.946;2023-05-13T07:21:39;1.77;;;0.90;;
19595;SDS011;9945;46.010;8.946;2023-05-13T07:24:07;2.70;;;0.93;;
19595;SDS011;9945;46.010;8.946;2023-05-13T07:26:34;0.80;;;0.80;;
19595;SDS011;9945;46.010;8.946;2023-05-13T07:29:01;2.05;;;0.95;;
19595;SDS011;9945;46.010;8.946;2023-05-13T07:31:28;1.10;;;1.10;;
19595;SDS011;9945;46.010;8.946;2023-05-13T07:33:55;1.33;;;0.90;;
19595;SDS011;9945;46.010;8.946;2023-05-13T07:36:22;0.80;;;0.80;;
19595;SDS011;9945;46.010;8.946;2023-05-13T07:38:49;1.08;;;1.08;;
19595;SDS011;9945;46.010;8.946;2023-05-13T07:41:18;1.75;;;0.85;;
19595;SDS011;9945;46.010;8.946;2023-05-13T07:43:45;1.38;;;1.10;;
19595;SDS011;9945;46.010;8.946;2023-05-13T07:46:12;1.20;;;1.10;;
19595;SDS011;9945;46.010;8.946;2023-05-13T07:48:39;1.63;;;1.00;;
19595;SDS011;9945;46.010;8.946;2023-05-13T07:51:06;1.00;;;1.00;;
19595;SDS011;9945;46.010;8.946;2023-05-13T07:53:34;1.13;;;1.02;;
19595;SDS011;9945;46.010;8.946;2023-05-13T07:56:01;1.20;;;1.10;;
19595;SDS011;9945;46.010;8.946;2023-05-13T07:58:29;1.45;;;1.40;;
19595;SDS011;9945;46.010;8.946;2023-05-13T08:00:56;2.45;;;1.17;;
19595;SDS011;9945;46.010;8.946;2023-05-13T08:03:23;0.90;;;0.90;;
19595;SDS011;9945;46.010;8.946;2023-05-13T08:05:50;2.00;;;0.90;;
19595;SDS011;9945;46.010;8.946;2023-05-13T08:08:17;1.95;;;0.90;;
19595;SDS011;9945;46.010;8.946;2023-05-13T08:10:43;1.42;;;0.90;;
19595;SDS011;9945;46.010;8.946;2023-05-13T08:13:10;0.85;;;0.85;;
19595;SDS011;9945;46.010;8.946;2023-05-13T08:15:38;0.93;;;0.90;;
19595;SDS011;9945;46.010;8.946;2023-05-13T08:18:06;0.82;;;0.80;;
19595;SDS011;9945;46.010;8.946;2023-05-13T08:20:33;1.27;;;1.10;;
19595;SDS011;9945;46.010;8.946;2023-05-13T08:23:00;1.02;;;1.00;;
19595;SDS011;9945;46.010;8.946;2023-05-13T08:25:27;1.17;;;1.00;;
19595;SDS011;9945;46.010;8.946;2023-05-13T08:27:54;1.10;;;1.00;;
19595;SDS011;9945;46.010;8.946;2023-05-13T08:30:22;2.05;;;1.27;;
19595;SDS011;9945;46.010;8.946;2023-05-13T08:32:50;1.67;;;1.42;;
19595;SDS011;9945;46.010;8.946;2023-05-13T08:35:17;1.90;;;0.88;;
19595;SDS011;9945;46.010;8.946;2023-05-13T08:37:44;1.30;;;1.20;;
19595;SDS011;9945;46.010;8.946;2023-05-13T08:40:11;1.17;;;1.08;;
19595;SDS011;9945;46.010;8.946;2023-05-13T08:42:39;1.35;;;1.25;;
19595;SDS011;9945;46.010;8.946;2023-05-13T08:45:10;1.95;;;1.10;;
19595;SDS011;9945;46.010;8.946;2023-05-13T08:47:39;3.15;;;1.10;;
19595;SDS011;9945;46.010;8.946;2023-05-13T08:50:13;4.13;;;1.40;;
19595;SDS011;9945;46.010;8.946;2023-05-13T08:52:40;1.25;;;1.15;;
19595;SDS011;9945;46.010;8.946;2023-05-13T08:55:08;1.10;;;1.10;;
19595;SDS011;9945;46.010;8.946;2023-05-13T08:57:36;0.88;;;0.88;;
19595;SDS011;9945;46.010;8.946;2023-05-13T09:00:03;1.33;;;1.20;;
19595;SDS011;9945;46.010;8.946;2023-05-13T09:02:31;2.00;;;0.95;;
19595;SDS011;9945;46.010;8.946;2023-05-13T09:04:59;1.20;;;1.10;;
19595;SDS011;9945;46.010;8.946;2023-05-13T09:07:32;1.38;;;1.00;;
19595;SDS011;9945;46.010;8.946;2023-05-13T09:09:59;1.42;;;1.08;;
19595;SDS011;9945;46.010;8.946;2023-05-13T09:12:41;1.10;;;1.10;;
19595;SDS011;9945;46.010;8.946;2023-05-13T09:15:10;1.23;;;1.13;;
19595;SDS011;9945;46.010;8.946;2023-05-13T09:17:38;1.27;;;0.93;;
19595;SDS011;9945;46.010;8.946;2023-05-13T09:20:07;0.88;;;0.80;;
19595;SDS011;9945;46.010;8.946;2023-05-13T09:22:36;1.42;;;1.20;;
19595;SDS011;9945;46.010;8.946;2023-05-13T09:25:07;2.47;;;1.45;;
19595;SDS011;9945;46.010;8.946;2023-05-13T09:27:38;1.10;;;1.10;;
19595;SDS011;9945;46.010;8.946;2023-05-13T09:30:07;3.50;;;1.13;;
19595;SDS011;9945;46.010;8.946;2023-05-13T09:32:36;0.90;;;0.90;;
19595;SDS011;9945;46.010;8.946;2023-05-13T09:35:10;1.58;;;1.48;;
19595;SDS011;9945;46.010;8.946;2023-05-13T09:37:42;1.23;;;1.13;;
19595;SDS011;9945;46.010;8.946;2023-05-13T09:40:10;1.60;;;1.25;;
19595;SDS011;9945;46.010;8.946;2023-05-13T09:42:41;1.92;;;1.67;;
19595;SDS011;9945;46.010;8.946;2023-05-13T09:45:09;2.90;;;1.42;;
19595;SDS011;9945;46.010;8.946;2023-05-13T09:47:37;1.67;;;1.20;;
19595;SDS011;9945;46.010;8.946;2023-05-13T09:50:04;1.17;;;1.08;;
19595;SDS011;9945;46.010;8.946;2023-05-13T09:52:33;1.10;;;0.98;;
19595;SDS011;9945;46.010;8.946;2023-05-13T09:55:03;1.70;;;1.10;;
19595;SDS011;9945;46.010;8.946;2023-05-13T09:57:34;1.40;;;1.30;;
19595;SDS011;9945;46.010;8.946;2023-05-13T10:00:03;1.20;;;0.93;;
19595;SDS011;9945;46.010;8.946;2023-05-13T10:02:31;1.52;;;1.45;;
19595;SDS011;9945;46.010;8.946;2023-05-13T10:04:59;1.65;;;0.95;;
19595;SDS011;9945;46.010;8.946;2023-05-13T10:07:27;1.08;;;1.08;;
19595;SDS011;9945;46.010;8.946;2023-05-13T10:09:56;2.20;;;1.70;;
19595;SDS011;9945;46.010;8.946;2023-05-13T10:12:27;1.85;;;1.52;;
19595;SDS011;9945;46.010;8.946;2023-05-13T10:14:57;1.60;;;1.50;;
19595;SDS011;9945;46.010;8.946;2023-05-13T10:17:24;1.90;;;1.77;;
19595;SDS011;9945;46.010;8.946;2023-05-13T10:19:52;1.60;;;1.50;;
19595;SDS011;9945;46.010;8.946;2023-05-13T10:22:20;1.98;;;1.70;;
19595;SDS011;9945;46.010;8.946;2023-05-13T10:24:54;1.50;;;1.40;;
19595;SDS011;9945;46.010;8.946;2023-05-13T10:27:25;1.50;;;1.40;;
19595;SDS011;9945;46.010;8.946;2023-05-13T10:29:54;1.40;;;1.30;;
19595;SDS011;9945;46.010;8.946;2023-05-13T10:32:22;1.63;;;1.40;;
19595;SDS011;9945;46.010;8.946;2023-05-13T10:34:51;1.40;;;1.30;;
19595;SDS011;9945;46.010;8.946;2023-05-13T10:40:22;1.73;;;1.63;;
19595;SDS011;9945;46.010;8.946;2023-05-13T10:43:06;1.65;;;1.55;;
19595;SDS011;9945;46.010;8.946;2023-05-13T10:45:37;1.42;;;1.27;;
19595;SDS011;9945;46.010;8.946;2023-05-13T10:48:04;1.77;;;1.50;;
19595;SDS011;9945;46.010;8.946;2023-05-13T10:50:34;3.05;;;2.10;;
19595;SDS011;9945;46.010;8.946;2023-05-13T10:53:06;2.47;;;1.73;;
19595;SDS011;9945;46.010;8.946;2023-05-13T10:55:39;3.53;;;1.85;;
19595;SDS011;9945;46.010;8.946;2023-05-13T10:58:10;2.13;;;1.77;;
19595;SDS011;9945;46.010;8.946;2023-05-13T11:00:39;1.70;;;1.60;;
19595;SDS011;9945;46.010;8.946;2023-05-13T11:03:08;3.20;;;1.92;;
19595;SDS011;9945;46.010;8.946;2023-05-13T11:05:37;1.70;;;1.60;;
19595;SDS011;9945;46.010;8.946;2023-05-13T11:08:05;1.60;;;1.40;;
19595;SDS011;9945;46.010;8.946;2023-05-13T11:10:32;2.63;;;1.80;;
19595;SDS011;9945;46.010;8.946;2023-05-13T11:13:06;3.88;;;1.73;;
19595;SDS011;9945;46.010;8.946;2023-05-13T11:16:00;1.60;;;1.50;;
19595;SDS011;9945;46.010;8.946;2023-05-13T11:18:31;3.78;;;2.45;;
19595;SDS011;9945;46.010;8.946;2023-05-13T11:21:01;2.13;;;1.48;;
19595;SDS011;9945;46.010;8.946;2023-05-13T11:23:29;2.97;;;1.75;;
19595;SDS011;9945;46.010;8.946;2023-05-13T11:26:08;2.90;;;2.00;;
19595;SDS011;9945;46.010;8.946;2023-05-13T11:28:58;1.65;;;1.55;;
19595;SDS011;9945;46.010;8.946;2023-05-13T11:31:41;1.95;;;1.77;;
19595;SDS011;9945;46.010;8.946;2023-05-13T11:34:10;1.85;;;1.73;;
19595;SDS011;9945;46.010;8.946;2023-05-13T11:36:39;2.65;;;1.35;;
19595;SDS011;9945;46.010;8.946;2023-05-13T11:39:08;2.60;;;1.40;;
19595;SDS011;9945;46.010;8.946;2023-05-13T11:41:41;1.75;;;1.30;;
19595;SDS011;9945;46.010;8.946;2023-05-13T11:44:11;3.60;;;1.60;;
19595;SDS011;9945;46.010;8.946;2023-05-13T11:46:52;3.17;;;1.55;;
19595;SDS011;9945;46.010;8.946;2023-05-13T11:49:30;1.55;;;1.15;;
19595;SDS011;9945;46.010;8.946;2023-05-13T11:51:58;2.40;;;1.33;;
19595;SDS011;9945;46.010;8.946;2023-05-13T11:54:25;2.17;;;1.77;;
19595;SDS011;9945;46.010;8.946;2023-05-13T11:56:52;1.80;;;1.48;;
19595;SDS011;9945;46.010;8.946;2023-05-13T11:59:20;1.75;;;1.10;;
19595;SDS011;9945;46.010;8.946;2023-05-13T12:01:57;1.80;;;1.50;;
19595;SDS011;9945;46.010;8.946;2023-05-13T12:04:26;1.27;;;1.17;;
19595;SDS011;9945;46.010;8.946;2023-05-13T12:06:54;1.92;;;1.50;;
19595;SDS011;9945;46.010;8.946;2023-05-13T12:09:21;1.88;;;1.38;;
19595;SDS011;9945;46.010;8.946;2023-05-13T12:11:48;1.50;;;1.40;;
19595;SDS011;9945;46.010;8.946;2023-05-13T12:14:15;3.08;;;1.50;;
19595;SDS011;9945;46.010;8.946;2023-05-13T12:16:44;2.55;;;1.20;;
19595;SDS011;9945;46.010;8.946;2023-05-13T12:19:11;2.20;;;1.58;;
19595;SDS011;9945;46.010;8.946;2023-05-13T12:21:38;2.05;;;1.60;;
19595;SDS011;9945;46.010;8.946;2023-05-13T12:24:15;1.20;;;1.10;;
19595;SDS011;9945;46.010;8.946;2023-05-13T12:26:42;2.97;;;1.25;;
19595;SDS011;9945;46.010;8.946;2023-05-13T12:29:09;1.77;;;1.42;;
19595;SDS011;9945;46.010;8.946;2023-05-13T12:31:36;2.40;;;1.50;;
19595;SDS011;9945;46.010;8.946;2023-05-13T12:34:04;1.50;;;1.40;;
19595;SDS011;9945;46.010;8.946;2023-05-13T12:36:31;1.60;;;1.50;;
19595;SDS011;9945;46.010;8.946;2023-05-13T12:39:03;2.45;;;1.35;;
19595;SDS011;9945;46.010;8.946;2023-05-13T12:41:31;1.70;;;1.60;;
19595;SDS011;9945;46.010;8.946;2023-05-13T12:44:00;1.42;;;1.40;;
19595;SDS011;9945;46.010;8.946;2023-05-13T12:46:28;1.70;;;1.60;;
19595;SDS011;9945;46.010;8.946;2023-05-13T12:48:56;1.90;;;1.60;;
19595;SDS011;9945;46.010;8.946;2023-05-13T12:51:25;1.88;;;1.63;;
19595;SDS011;9945;46.010;8.946;2023-05-13T12:53:52;2.95;;;1.30;;
19595;SDS011;9945;46.010;8.946;2023-05-13T12:56:20;1.55;;;1.30;;
19595;SDS011;9945;46.010;8.946;2023-05-13T12:58:47;1.80;;;1.70;;
19595;SDS011;9945;46.010;8.946;2023-05-13T13:01:15;2.72;;;1.58;;
19595;SDS011;9945;46.010;8.946;2023-05-13T13:03:42;2.42;;;1.42;;
19595;SDS011;9945;46.010;8.946;2023-05-13T13:06:08;2.22;;;1.50;;
19595;SDS011;9945;46.010;8.946;2023-05-13T13:08:37;3.08;;;1.10;;
19595;SDS011;9945;46.010;8.946;2023-05-13T13:11:04;1.95;;;1.45;;
19595;SDS011;9945;46.010;8.946;2023-05-13T13:13:31;1.65;;;1.50;;
19595;SDS011;9945;46.010;8.946;2023-05-13T13:15:58;1.98;;;1.10;;
19595;SDS011;9945;46.010;8.946;2023-05-13T13:18:25;1.40;;;1.30;;
19595;SDS011;9945;46.010;8.946;2023-05-13T13:20:52;1.27;;;1.10;;
19595;SDS011;9945;46.010;8.946;2023-05-13T13:23:20;1.70;;;1.50;;
19595;SDS011;9945;46.010;8.946;2023-05-13T13:25:48;1.25;;;1.13;;
19595;SDS011;9945;46.010;8.946;2023-05-13T13:28:15;2.70;;;0.98;;
19595;SDS011;9945;46.010;8.946;2023-05-13T13:30:41;2.28;;;1.20;;
19595;SDS011;9945;46.010;8.946;2023-05-13T13:33:11;1.33;;;1.23;;
19595;SDS011;9945;46.010;8.946;2023-05-13T13:35:39;1.63;;;1.20;;
19595;SDS011;9945;46.010;8.946;2023-05-13T13:38:06;2.50;;;1.20;;
19595;SDS011;9945;46.010;8.946;2023-05-13T13:40:33;2.63;;;1.10;;
19595;SDS011;9945;46.010;8.946;2023-05-13T13:43:02;1.90;;;1.17;;
19595;SDS011;9945;46.010;8.946;2023-05-13T13:45:29;1.52;;;1.30;;
19595;SDS011;9945;46.010;8.946;2023-05-13T13:47:56;0.98;;;0.98;;
19595;SDS011;9945;46.010;8.946;2023-05-13T13:50:23;0.98;;;0.98;;
19595;SDS011;9945;46.010;8.946;2023-05-13T13:52:50;0.95;;;0.95;;
19595;SDS011;9945;46.010;8.946;2023-05-13T13:55:17;1.27;;;0.88;;
19595;SDS011;9945;46.010;8.946;2023-05-13T13:57:44;1.42;;;1.33;;
19595;SDS011;9945;46.010;8.946;2023-05-13T14:00:13;0.93;;;0.93;;
19595;SDS011;9945;46.010;8.946;2023-05-13T14:02:41;1.80;;;1.33;;
19595;SDS011;9945;46.010;8.946;2023-05-13T14:05:08;1.75;;;1.00;;
19595;SDS011;9945;46.010;8.946;2023-05-13T14:07:36;2.03;;;1.23;;
19595;SDS011;9945;46.010;8.946;2023-05-13T14:10:03;1.30;;;1.20;;
19595;SDS011;9945;46.010;8.946;2023-05-13T14:12:31;1.60;;;1.17;;
19595;SDS011;9945;46.010;8.946;2023-05-13T14:14:57;1.67;;;1.13;;
19595;SDS011;9945;46.010;8.946;2023-05-13T14:17:26;1.15;;;1.00;;
19595;SDS011;9945;46.010;8.946;2023-05-13T14:19:53;1.25;;;0.95;;
19595;SDS011;9945;46.010;8.946;2023-05-13T14:22:20;4.13;;;0.98;;
19595;SDS011;9945;46.010;8.946;2023-05-13T14:24:47;1.05;;;0.95;;
19595;SDS011;9945;46.010;8.946;2023-05-13T14:27:15;1.48;;;1.05;;
19595;SDS011;9945;46.010;8.946;2023-05-13T14:29:44;1.63;;;1.17;;
19595;SDS011;9945;46.010;8.946;2023-05-13T14:32:11;1.30;;;1.20;;
19595;SDS011;9945;46.010;8.946;2023-05-13T14:34:39;1.45;;;1.10;;
19595;SDS011;9945;46.010;8.946;2023-05-13T14:37:06;1.85;;;1.10;;
19595;SDS011;9945;46.010;8.946;2023-05-13T14:39:33;2.40;;;1.10;;
19595;SDS011;9945;46.010;8.946;2023-05-13T14:42:01;1.27;;;1.17;;
19595;SDS011;9945;46.010;8.946;2023-05-13T14:44:28;1.35;;;1.25;;
19595;SDS011;9945;46.010;8.946;2023-05-13T14:46:55;1.02;;;0.93;;
19595;SDS011;9945;46.010;8.946;2023-05-13T14:49:22;1.10;;;1.10;;
19595;SDS011;9945;46.010;8.946;2023-05-13T14:51:50;1.52;;;0.90;;
19595;SDS011;9945;46.010;8.946;2023-05-13T14:54:17;1.35;;;0.95;;
19595;SDS011;9945;46.010;8.946;2023-05-13T14:56:44;4.38;;;0.93;;
19595;SDS011;9945;46.010;8.946;2023-05-13T14:59:11;2.70;;;1.52;;
19595;SDS011;9945;46.010;8.946;2023-05-13T15:01:38;1.08;;;0.98;;
19595;SDS011;9945;46.010;8.946;2023-05-13T15:04:05;1.50;;;0.98;;
19595;SDS011;9945;46.010;8.946;2023-05-13T15:06:32;1.20;;;0.98;;
19595;SDS011;9945;46.010;8.946;2023-05-13T15:09:00;1.20;;;1.00;;